Ambridge, Pennsylvania
Current Conditions -  °F | °C
As of 5:51 PM on Wednesday 22 Oct 2014 (Local Time) from KPIT Reporting Station
Overcast Overcast  
Wind Chill:   Ceiling: 2000
Heat Index:   Visibility: 10mi
Dew Point:   Wind: 10mph
Humidity: 74%   Direction: 350°N
Pressure: 30.17"   Gusts: NA
Location:  40.59°N, 80.23°W
Report Text: KPIT 222151Z 35009KT 10SM OVC020 09/05 A3017 RMK AO2 SLP229 T00940050
Loading
Personal Weather Stations






























Interactive Weather Map
Tropical Storm Tracking
New forecast layout! Learn more

10-Day Weather Forecast

Advertisements
Track Severe Weather on mobile